Time;durP1;ratioP1;P1;durP2;ratioP2;P2;SDS_P1;SDS_P2;PMS_P1;PMS_P2;Temp;Humidity;BMP_temperature;BMP_pressure;BME280_temperature;BME280_humidity;BME280_pressure;Samples;Min_cycle;Max_cycle;Signal;HPM_P1;HPM_P2
2024/03/29 00:02:12;;;;;;;0.10;0.10;;;;;;;;;;4979191;28;20060;-86
2024/03/29 00:04:38;;;;;;;0.10;0.10;;;;;;;;;;4994636;28;20413;-86
2024/03/29 00:07:04;;;;;;;0.10;0.10;;;;;;;;;;5010981;28;20042;-86
2024/03/29 00:09:30;;;;;;;0.10;0.10;;;;;;;;;;4994781;28;20045;-86
2024/03/29 00:11:56;;;;;;;0.10;0.10;;;;;;;;;;4994505;28;20033;-87
2024/03/29 00:14:22;;;;;;;0.10;0.10;;;;;;;;;;4994844;28;20401;-84
2024/03/29 00:16:48;;;;;;;0.10;0.10;;;;;;;;;;5011094;28;20041;-85
2024/03/29 00:19:14;;;;;;;0.10;0.10;;;;;;;;;;5010874;28;20489;-85
2024/03/29 00:21:40;;;;;;;0.10;0.10;;;;;;;;;;5011027;28;20143;-86
2024/03/29 00:24:06;;;;;;;0.10;0.10;;;;;;;;;;5010710;28;20095;-85
2024/03/29 00:26:32;;;;;;;0.10;0.10;;;;;;;;;;5010836;28;20045;-85
2024/03/29 00:28:58;;;;;;;0.10;0.10;;;;;;;;;;4978432;28;20508;-86
2024/03/29 00:31:24;;;;;;;0.10;0.10;;;;;;;;;;5010787;28;20080;-85
2024/03/29 00:33:50;;;;;;;0.10;0.10;;;;;;;;;;5010662;28;20064;-86
2024/03/29 00:36:16;;;;;;;0.10;0.10;;;;;;;;;;5010707;28;20049;-85
2024/03/29 00:38:42;;;;;;;0.20;0.20;;;;;;;;;;5011999;28;20037;-87
2024/03/29 00:41:08;;;;;;;0.10;0.10;;;;;;;;;;4998264;28;20549;-86
2024/03/29 00:43:34;;;;;;;0.10;0.10;;;;;;;;;;4982243;28;20046;-87
2024/03/29 00:46:00;;;;;;;0.10;0.10;;;;;;;;;;5014339;28;20096;-87
2024/03/29 00:48:26;;;;;;;0.20;0.20;;;;;;;;;;4998070;28;20412;-86
2024/03/29 00:50:52;;;;;;;0.10;0.10;;;;;;;;;;5014342;28;20137;-86
2024/03/29 00:53:18;;;;;;;0.10;0.10;;;;;;;;;;4998166;28;20659;-87
2024/03/29 00:55:44;;;;;;;0.10;0.10;;;;;;;;;;4998000;28;20099;-87
2024/03/29 00:58:10;;;;;;;0.10;0.10;;;;;;;;;;4998134;28;20050;-86
2024/03/29 01:00:36;;;;;;;0.10;0.10;;;;;;;;;;5014104;28;20050;-86
2024/03/29 01:03:02;;;;;;;0.10;0.10;;;;;;;;;;4997992;28;20052;-86
2024/03/29 01:05:28;;;;;;;0.10;0.10;;;;;;;;;;4997804;28;20042;-87
2024/03/29 01:07:54;;;;;;;0.10;0.10;;;;;;;;;;5014330;28;20133;-86
2024/03/29 01:10:22;;;;;;;0.10;0.10;;;;;;;;;;5013943;28;20602;-86
2024/03/29 01:12:48;;;;;;;0.15;0.15;;;;;;;;;;4981861;28;20072;-86
2024/03/29 01:15:14;;;;;;;0.10;0.10;;;;;;;;;;5013918;28;20041;-87
2024/03/29 01:17:40;;;;;;;0.20;0.20;;;;;;;;;;5014117;28;20048;-85
2024/03/29 01:20:08;;;;;;;0.10;0.10;;;;;;;;;;4997322;28;20041;-86
2024/03/29 01:22:34;;;;;;;0.10;0.10;;;;;;;;;;5014953;28;20049;-87
2024/03/29 01:25:01;;;;;;;0.20;0.20;;;;;;;;;;5013688;28;20498;-86
2024/03/29 01:27:27;;;;;;;0.10;0.10;;;;;;;;;;4997404;28;20458;-86
2024/03/29 01:29:53;;;;;;;0.10;0.10;;;;;;;;;;4997235;28;20122;-87
2024/03/29 01:32:19;;;;;;;0.10;0.10;;;;;;;;;;4997322;28;20038;-86
2024/03/29 01:34:45;;;;;;;0.10;0.10;;;;;;;;;;4997281;28;20053;-86
2024/03/29 01:37:11;;;;;;;0.10;0.10;;;;;;;;;;5013283;28;20123;-86
2024/03/29 01:39:37;;;;;;;0.10;0.10;;;;;;;;;;4997145;28;20136;-86
2024/03/29 01:42:03;;;;;;;0.10;0.10;;;;;;;;;;4997158;28;20509;-86
2024/03/29 01:44:29;;;;;;;0.10;0.10;;;;;;;;;;5013339;28;20069;-85
2024/03/29 01:46:55;;;;;;;0.10;0.10;;;;;;;;;;5013144;28;20046;-87
2024/03/29 01:49:21;;;;;;;0.10;0.10;;;;;;;;;;4997101;28;20126;-87
2024/03/29 01:51:47;;;;;;;0.20;0.20;;;;;;;;;;5012994;28;20038;-87
2024/03/29 01:54:13;;;;;;;0.10;0.10;;;;;;;;;;4997018;28;20037;-87
2024/03/29 01:56:41;;;;;;;0.10;0.10;;;;;;;;;;4996925;28;20045;-87
2024/03/29 01:59:08;;;;;;;0.10;0.10;;;;;;;;;;5013094;28;20128;-86
2024/03/29 02:01:34;;;;;;;0.10;0.10;;;;;;;;;;5012956;28;20053;-87
2024/03/29 02:04:00;;;;;;;0.10;0.10;;;;;;;;;;4996942;28;20045;-86
2024/03/29 02:06:26;;;;;;;0.77;0.77;;;;;;;;;;4996706;28;20045;-86
2024/03/29 02:08:55;;;;;;;0.10;0.10;;;;;;;;;;4996722;28;20042;-87
2024/03/29 02:11:21;;;;;;;0.10;0.10;;;;;;;;;;5012834;28;20042;-85
2024/03/29 02:13:47;;;;;;;0.10;0.10;;;;;;;;;;5014204;28;20034;-85
2024/03/29 02:16:13;;;;;;;0.10;0.10;;;;;;;;;;4980263;28;20049;-85
2024/03/29 02:18:39;;;;;;;0.15;0.15;;;;;;;;;;5012696;28;20401;-86
2024/03/29 02:21:05;;;;;;;0.10;0.10;;;;;;;;;;5012742;28;20049;-86
2024/03/29 02:23:32;;;;;;;0.10;0.10;;;;;;;;;;4996388;28;20493;-85
2024/03/29 02:25:58;;;;;;;0.10;0.10;;;;;;;;;;4980400;28;20402;-85
2024/03/29 02:28:24;;;;;;;0.10;0.10;;;;;;;;;;4996362;28;20118;-86
2024/03/29 02:30:51;;;;;;;0.10;0.10;;;;;;;;;;4996187;28;20077;-86
2024/03/29 02:33:17;;;;;;;0.10;0.10;;;;;;;;;;4996136;28;20045;-85
2024/03/29 02:35:43;;;;;;;0.10;0.10;;;;;;;;;;5012315;28;20042;-85
2024/03/29 02:38:09;;;;;;;0.10;0.10;;;;;;;;;;5012280;28;20521;-85
2024/03/29 02:40:35;;;;;;;0.10;0.10;;;;;;;;;;5012190;28;20045;-85
2024/03/29 02:43:01;;;;;;;0.10;0.10;;;;;;;;;;5012423;28;20049;-85
2024/03/29 02:45:27;;;;;;;0.10;0.10;;;;;;;;;;4995839;28;20412;-86
2024/03/29 02:47:53;;;;;;;0.10;0.10;;;;;;;;;;5011943;28;20055;-86
2024/03/29 02:50:19;;;;;;;0.10;0.10;;;;;;;;;;4995804;28;20049;-86
2024/03/29 02:52:45;;;;;;;0.10;0.10;;;;;;;;;;4995830;28;20042;-86
2024/03/29 02:55:11;;;;;;;0.30;0.30;;;;;;;;;;4996029;28;20041;-86
2024/03/29 02:57:40;;;;;;;0.10;0.10;;;;;;;;;;4995664;28;20037;-87
2024/03/29 03:00:06;;;;;;;0.10;0.10;;;;;;;;;;5011999;28;20092;-86
2024/03/29 03:02:32;;;;;;;0.10;0.10;;;;;;;;;;5011460;28;20037;-86
2024/03/29 03:05:00;;;;;;;0.10;0.10;;;;;;;;;;4995724;28;20038;-86
2024/03/29 03:12:55;;;;;;;0.10;0.10;;;;;;;;;;5011941;28;20042;-86
2024/03/29 03:15:21;;;;;;;0.10;0.10;;;;;;;;;;5012023;28;20060;-86
2024/03/29 03:17:47;;;;;;;0.10;0.10;;;;;;;;;;4979220;28;20045;-87
2024/03/29 03:20:15;;;;;;;0.10;0.10;;;;;;;;;;4995459;28;20168;-86
2024/03/29 03:22:41;;;;;;;0.30;0.30;;;;;;;;;;4995295;28;20049;-86
2024/03/29 03:25:08;;;;;;;0.13;0.13;;;;;;;;;;4979439;28;20121;-86
2024/03/29 03:27:33;;;;;;;0.10;0.10;;;;;;;;;;5011802;28;20042;-86
2024/03/29 03:29:59;;;;;;;0.10;0.10;;;;;;;;;;4979064;28;20045;-85
2024/03/29 03:32:25;;;;;;;0.20;0.20;;;;;;;;;;4995500;28;20394;-86
2024/03/29 03:34:51;;;;;;;0.10;0.10;;;;;;;;;;4995654;28;20103;-85
2024/03/29 03:37:17;;;;;;;0.10;0.10;;;;;;;;;;4995184;28;20057;-84
2024/03/29 03:39:43;;;;;;;0.10;0.10;;;;;;;;;;4996177;28;20086;-85
2024/03/29 03:42:09;;;;;;;0.10;0.10;;;;;;;;;;4995042;28;20186;-86
2024/03/29 03:44:35;;;;;;;0.10;0.10;;;;;;;;;;5011960;28;20089;-85
2024/03/29 03:47:01;;;;;;;0.10;0.10;;;;;;;;;;5011443;28;20052;-85
2024/03/29 03:49:27;;;;;;;0.10;0.10;;;;;;;;;;4996077;28;20042;-85
2024/03/29 03:51:53;;;;;;;0.10;0.10;;;;;;;;;;5012230;28;20042;-85
2024/03/29 03:54:19;;;;;;;0.10;0.10;;;;;;;;;;4995686;28;20038;-84
2024/03/29 03:56:45;;;;;;;0.10;0.10;;;;;;;;;;4995446;28;20154;-85
2024/03/29 03:59:11;;;;;;;0.10;0.10;;;;;;;;;;5011633;28;20067;-85
2024/03/29 04:01:37;;;;;;;0.10;0.10;;;;;;;;;;5011705;28;20080;-87
2024/03/29 04:04:03;;;;;;;0.10;0.10;;;;;;;;;;5011831;28;20057;-85
2024/03/29 04:06:29;;;;;;;0.10;0.10;;;;;;;;;;4996196;28;20034;-88
2024/03/29 04:08:55;;;;;;;0.10;0.10;;;;;;;;;;5012307;28;20046;-86
2024/03/29 04:11:21;;;;;;;0.10;0.10;;;;;;;;;;4995536;28;20425;-85
2024/03/29 04:13:47;;;;;;;0.20;0.20;;;;;;;;;;5013259;28;20147;-86
2024/03/29 04:16:13;;;;;;;0.10;0.10;;;;;;;;;;5016299;28;20400;-85
2024/03/29 04:18:39;;;;;;;0.20;0.20;;;;;;;;;;4999085;28;20056;-86
2024/03/29 04:21:05;;;;;;;0.30;0.30;;;;;;;;;;4998857;28;20068;-87
2024/03/29 04:23:31;;;;;;;2.00;0.30;;;;;;;;;;4998814;28;20390;-85
2024/03/29 04:25:58;;;;;;;0.10;0.10;;;;;;;;;;4998542;28;20045;-86
2024/03/29 04:28:24;;;;;;;0.10;0.10;;;;;;;;;;4998916;28;20034;-86
2024/03/29 04:31:00;;;;;;;0.10;0.10;;;;;;;;;;4998481;28;20045;-85
2024/03/29 04:33:26;;;;;;;0.10;0.10;;;;;;;;;;5016217;28;20044;-86
2024/03/29 04:36:02;;;;;;;0.10;0.10;;;;;;;;;;4998427;28;20049;-85
2024/03/29 04:38:28;;;;;;;0.63;0.47;;;;;;;;;;5014918;28;20046;-85
2024/03/29 04:40:54;;;;;;;0.10;0.10;;;;;;;;;;4998239;28;20053;-86
2024/03/29 04:43:22;;;;;;;0.10;0.10;;;;;;;;;;4998472;28;20465;-86
2024/03/29 04:45:48;;;;;;;0.10;0.10;;;;;;;;;;4998193;28;20042;-87
2024/03/29 04:48:14;;;;;;;0.10;0.10;;;;;;;;;;4998150;28;20581;-86
2024/03/29 04:50:40;;;;;;;0.10;0.10;;;;;;;;;;5014463;28;20074;-87
2024/03/29 04:53:08;;;;;;;0.10;0.10;;;;;;;;;;5014248;28;20038;-86
2024/03/29 04:55:34;;;;;;;0.10;0.10;;;;;;;;;;5015762;28;20033;-86
2024/03/29 04:58:00;;;;;;;0.10;0.10;;;;;;;;;;4998043;28;20033;-87
2024/03/29 05:00:26;;;;;;;0.10;0.10;;;;;;;;;;4997954;28;20144;-86
2024/03/29 05:02:52;;;;;;;0.10;0.10;;;;;;;;;;5014199;28;20497;-86
2024/03/29 05:05:18;;;;;;;0.10;0.10;;;;;;;;;;5014053;28;20073;-86
2024/03/29 05:07:44;;;;;;;0.10;0.10;;;;;;;;;;4981922;28;20132;-86
2024/03/29 05:10:10;;;;;;;0.10;0.10;;;;;;;;;;4997755;28;20513;-86
2024/03/29 05:12:37;;;;;;;0.10;0.10;;;;;;;;;;5014148;28;20042;-86
2024/03/29 05:15:03;;;;;;;0.10;0.10;;;;;;;;;;4981587;28;20125;-86
2024/03/29 05:17:29;;;;;;;0.15;0.15;;;;;;;;;;5013985;28;20046;-86
2024/03/29 05:19:55;;;;;;;0.10;0.10;;;;;;;;;;5013804;28;20037;-86
2024/03/29 05:22:21;;;;;;;0.10;0.10;;;;;;;;;;5014992;28;20137;-86
2024/03/29 05:24:47;;;;;;;0.30;0.30;;;;;;;;;;5013123;28;20486;-87
2024/03/29 05:27:13;;;;;;;0.10;0.10;;;;;;;;;;4997520;28;20046;-87
2024/03/29 05:29:39;;;;;;;0.10;0.10;;;;;;;;;;4997751;28;20042;-86
2024/03/29 05:32:05;;;;;;;0.10;0.10;;;;;;;;;;4997462;28;20173;-87
2024/03/29 05:34:31;;;;;;;0.10;0.10;;;;;;;;;;5013627;28;20334;-85
2024/03/29 05:36:57;;;;;;;0.10;0.10;;;;;;;;;;4997303;28;20046;-86
2024/03/29 05:39:23;;;;;;;0.65;0.65;;;;;;;;;;5013632;28;20092;-87
2024/03/29 05:41:49;;;;;;;0.10;0.10;;;;;;;;;;5013539;28;20046;-86
2024/03/29 05:44:17;;;;;;;0.10;0.10;;;;;;;;;;5013489;28;20041;-86
2024/03/29 05:46:43;;;;;;;0.10;0.10;;;;;;;;;;4997124;28;20065;-86
2024/03/29 05:49:09;;;;;;;0.10;0.10;;;;;;;;;;4996850;28;20046;-85
2024/03/29 05:51:35;;;;;;;0.10;0.10;;;;;;;;;;4980699;28;20046;-87
2024/03/29 05:54:03;;;;;;;0.10;0.10;;;;;;;;;;5013466;28;20052;-86
2024/03/29 05:56:29;;;;;;;0.10;0.10;;;;;;;;;;4997234;28;20478;-85
2024/03/29 05:58:57;;;;;;;0.10;0.10;;;;;;;;;;4996784;28;20042;-86
2024/03/29 06:01:23;;;;;;;0.10;0.10;;;;;;;;;;5013377;28;20046;-87
2024/03/29 06:03:52;;;;;;;0.10;0.10;;;;;;;;;;4996892;28;20053;-86
2024/03/29 06:06:22;;;;;;;0.10;0.10;;;;;;;;;;5012823;28;20050;-86
2024/03/29 06:08:48;;;;;;;0.10;0.10;;;;;;;;;;5012915;28;20041;-86
2024/03/29 06:11:14;;;;;;;0.10;0.10;;;;;;;;;;4996692;28;20042;-86
2024/03/29 06:19:13;;;;;;;0.10;0.10;;;;;;;;;;4999052;28;20193;-86
2024/03/29 06:21:39;;;;;;;0.10;0.10;;;;;;;;;;5012645;28;20129;-85
2024/03/29 06:24:08;;;;;;;0.10;0.10;;;;;;;;;;4996928;28;20378;-86
2024/03/29 06:26:35;;;;;;;0.10;0.10;;;;;;;;;;4980235;28;20045;-87
2024/03/29 06:29:02;;;;;;;0.10;0.10;;;;;;;;;;5013975;28;20482;-87
2024/03/29 06:31:28;;;;;;;0.10;0.10;;;;;;;;;;4996160;28;20105;-86
2024/03/29 06:33:54;;;;;;;0.10;0.10;;;;;;;;;;4996177;28;20034;-86
2024/03/29 06:36:20;;;;;;;0.10;0.10;;;;;;;;;;4995242;28;20496;-86
2024/03/29 06:38:46;;;;;;;0.10;0.10;;;;;;;;;;5012463;28;20041;-86
2024/03/29 06:41:12;;;;;;;0.10;0.10;;;;;;;;;;4996308;28;20042;-86
2024/03/29 06:43:38;;;;;;;0.10;0.10;;;;;;;;;;4996058;28;20508;-86
2024/03/29 06:46:04;;;;;;;0.10;0.10;;;;;;;;;;4996155;28;20472;-87
2024/03/29 06:48:31;;;;;;;0.30;0.30;;;;;;;;;;5012108;28;20120;-87
2024/03/29 06:50:58;;;;;;;0.15;0.15;;;;;;;;;;4996092;28;20448;-86
2024/03/29 06:53:25;;;;;;;0.10;0.10;;;;;;;;;;4979996;28;20061;-87
2024/03/29 06:55:51;;;;;;;0.10;0.10;;;;;;;;;;5012194;28;20441;-86
2024/03/29 06:58:17;;;;;;;0.10;0.10;;;;;;;;;;4995781;28;20564;-85
2024/03/29 07:00:49;;;;;;;0.10;0.10;;;;;;;;;;4995645;28;20034;-84
2024/03/29 07:03:15;;;;;;;0.10;0.10;;;;;;;;;;5011977;28;20494;-83
2024/03/29 07:05:41;;;;;;;0.13;0.13;;;;;;;;;;5011774;28;20134;-83
2024/03/29 07:08:07;;;;;;;0.10;0.10;;;;;;;;;;4995571;28;20045;-83
2024/03/29 07:10:33;;;;;;;0.10;0.10;;;;;;;;;;5011605;28;20053;-83
2024/03/29 07:12:59;;;;;;;0.10;0.10;;;;;;;;;;4995596;28;20046;-83
2024/03/29 07:15:25;;;;;;;0.10;0.10;;;;;;;;;;5011676;28;20057;-84
2024/03/29 07:17:54;;;;;;;0.10;0.10;;;;;;;;;;5012931;28;20041;-83
2024/03/29 07:20:20;;;;;;;0.10;0.10;;;;;;;;;;4995374;28;20088;-85
2024/03/29 07:22:46;;;;;;;0.25;0.20;;;;;;;;;;5011761;28;20401;-83
2024/03/29 07:25:12;;;;;;;0.10;0.10;;;;;;;;;;5023013;28;20129;-82
2024/03/29 07:27:38;;;;;;;0.10;0.10;;;;;;;;;;5014531;28;20485;-82
2024/03/29 07:30:07;;;;;;;0.10;0.10;;;;;;;;;;5032500;28;20041;-85
2024/03/29 07:32:33;;;;;;;0.10;0.10;;;;;;;;;;5014755;28;20045;-83
2024/03/29 07:34:59;;;;;;;0.10;0.10;;;;;;;;;;5012851;28;20107;-85
2024/03/29 07:37:25;;;;;;;0.10;0.10;;;;;;;;;;5014545;28;20049;-82
2024/03/29 07:39:51;;;;;;;0.10;0.10;;;;;;;;;;5030962;28;20103;-82
2024/03/29 07:42:18;;;;;;;0.10;0.10;;;;;;;;;;5015076;28;20041;-82
2024/03/29 07:44:44;;;;;;;0.10;0.10;;;;;;;;;;5014685;28;20052;-81
2024/03/29 07:47:13;;;;;;;0.40;0.40;;;;;;;;;;5030396;28;20037;-82
2024/03/29 07:49:39;;;;;;;0.10;0.10;;;;;;;;;;4998437;28;20041;-82
2024/03/29 07:52:06;;;;;;;0.10;0.10;;;;;;;;;;4998175;28;20051;-82
2024/03/29 07:54:32;;;;;;;0.10;0.10;;;;;;;;;;5031156;28;20389;-82
2024/03/29 07:56:58;;;;;;;0.10;0.10;;;;;;;;;;5014281;28;20049;-82
2024/03/29 07:59:24;;;;;;;0.10;0.10;;;;;;;;;;5030755;28;20404;-82
2024/03/29 08:01:52;;;;;;;0.10;0.10;;;;;;;;;;4998168;28;20045;-82
2024/03/29 08:04:18;;;;;;;0.13;0.13;;;;;;;;;;5014728;28;20393;-83
2024/03/29 08:06:44;;;;;;;0.10;0.10;;;;;;;;;;5014135;28;20046;-83
2024/03/29 08:09:10;;;;;;;0.10;0.10;;;;;;;;;;5014391;28;20052;-82
2024/03/29 08:11:36;;;;;;;0.10;0.10;;;;;;;;;;5030673;28;20045;-83
2024/03/29 08:14:02;;;;;;;0.10;0.10;;;;;;;;;;5030343;28;20041;-84
2024/03/29 08:16:29;;;;;;;0.20;0.20;;;;;;;;;;5030463;28;20091;-86
2024/03/29 08:18:55;;;;;;;0.10;0.10;;;;;;;;;;5014485;28;20057;-82
2024/03/29 08:21:21;;;;;;;0.20;0.20;;;;;;;;;;5014191;28;20459;-83
2024/03/29 08:23:47;;;;;;;0.10;0.10;;;;;;;;;;5014162;28;20092;-84
2024/03/29 08:26:13;;;;;;;0.10;0.10;;;;;;;;;;5014287;28;20124;-83
2024/03/29 08:28:40;;;;;;;0.10;0.10;;;;;;;;;;4998074;28;20050;-83
2024/03/29 08:31:07;;;;;;;0.10;0.10;;;;;;;;;;5014257;28;20064;-83
2024/03/29 08:33:33;;;;;;;0.10;0.10;;;;;;;;;;4997840;28;20065;-83
2024/03/29 08:35:59;;;;;;;0.10;0.10;;;;;;;;;;5013834;28;20041;-83
2024/03/29 08:38:25;;;;;;;0.10;0.10;;;;;;;;;;5014225;28;20048;-84
2024/03/29 08:40:51;;;;;;;0.10;0.10;;;;;;;;;;5014095;28;20497;-83
2024/03/29 08:43:20;;;;;;;0.10;0.10;;;;;;;;;;5014010;28;20037;-86
2024/03/29 08:45:46;;;;;;;0.13;0.13;;;;;;;;;;4997759;28;20167;-85
2024/03/29 08:48:12;;;;;;;0.10;0.10;;;;;;;;;;5013606;28;20503;-84
2024/03/29 08:50:38;;;;;;;0.10;0.10;;;;;;;;;;4997393;28;20041;-85
2024/03/29 08:53:04;;;;;;;0.10;0.10;;;;;;;;;;5013799;28;20045;-85
2024/03/29 08:55:30;;;;;;;0.10;0.10;;;;;;;;;;4997842;28;20049;-84
2024/03/29 08:58:00;;;;;;;0.10;0.10;;;;;;;;;;5013702;28;20041;-84
2024/03/29 09:00:29;;;;;;;0.10;0.10;;;;;;;;;;4999670;28;20042;-84
2024/03/29 09:02:58;;;;;;;0.10;0.10;;;;;;;;;;5017053;28;20037;-84
2024/03/29 09:05:25;;;;;;;0.10;0.10;;;;;;;;;;5001549;28;20056;-85
2024/03/29 09:07:51;;;;;;;0.10;0.10;;;;;;;;;;5017483;28;20045;-84
2024/03/29 09:10:17;;;;;;;0.10;0.10;;;;;;;;;;5000835;28;20489;-84
2024/03/29 09:12:43;;;;;;;0.10;0.10;;;;;;;;;;5017215;28;20041;-85
2024/03/29 09:15:13;;;;;;;0.10;0.10;;;;;;;;;;5017105;28;20042;-84
2024/03/29 09:17:42;;;;;;;0.10;0.10;;;;;;;;;;5017143;28;20041;-85
2024/03/29 09:20:08;;;;;;;0.10;0.10;;;;;;;;;;5033640;28;20456;-85
2024/03/29 09:22:35;;;;;;;0.10;0.10;;;;;;;;;;5033489;28;20492;-85
2024/03/29 09:25:01;;;;;;;0.10;0.10;;;;;;;;;;5000634;28;20571;-85
2024/03/29 09:27:27;;;;;;;0.10;0.10;;;;;;;;;;5000844;28;20052;-84
2024/03/29 09:29:53;;;;;;;0.10;0.10;;;;;;;;;;5017068;28;20083;-84
2024/03/29 09:32:20;;;;;;;0.10;0.10;;;;;;;;;;5001006;28;20071;-84
2024/03/29 09:34:47;;;;;;;0.10;0.10;;;;;;;;;;5016803;28;20033;-85
2024/03/29 09:37:13;;;;;;;0.10;0.10;;;;;;;;;;4995568;28;20072;-82
2024/03/29 09:39:39;;;;;;;0.10;0.10;;;;;;;;;;4981013;28;20037;-85
2024/03/29 09:42:05;;;;;;;0.10;0.10;;;;;;;;;;4981116;28;20433;-85
2024/03/29 09:44:32;;;;;;;0.10;0.10;;;;;;;;;;5013398;28;20050;-85
2024/03/29 09:47:00;;;;;;;0.30;0.30;;;;;;;;;;4980615;28;20644;-85
2024/03/29 09:49:26;;;;;;;0.10;0.10;;;;;;;;;;4981098;28;20085;-85
2024/03/29 09:51:52;;;;;;;0.10;0.10;;;;;;;;;;4997289;28;20433;-85
2024/03/29 09:54:18;;;;;;;0.10;0.10;;;;;;;;;;5013229;28;20481;-86
2024/03/29 09:56:44;;;;;;;0.10;0.10;;;;;;;;;;4980810;28;20038;-86
2024/03/29 09:59:10;;;;;;;0.20;0.20;;;;;;;;;;4980906;28;20038;-85
2024/03/29 10:01:36;;;;;;;0.10;0.10;;;;;;;;;;4996424;28;20049;-84
2024/03/29 10:04:03;;;;;;;0.10;0.10;;;;;;;;;;4980389;28;20050;-85
2024/03/29 10:06:31;;;;;;;0.10;0.10;;;;;;;;;;4996538;28;20095;-85
2024/03/29 10:08:58;;;;;;;0.10;0.10;;;;;;;;;;4981492;28;20046;-87
2024/03/29 10:11:44;;;;;;;0.10;0.10;;;;;;;;;;4997878;28;20034;-92
2024/03/29 10:14:11;;;;;;;0.10;0.10;;;;;;;;;;4998747;28;20486;-92
2024/03/29 10:16:37;;;;;;;0.10;0.10;;;;;;;;;;4998800;28;20099;-88
2024/03/29 10:19:03;;;;;;;0.10;0.10;;;;;;;;;;4980529;28;20494;-87
2024/03/29 10:21:30;;;;;;;0.10;0.10;;;;;;;;;;4996479;28;20127;-90
2024/03/29 10:23:56;;;;;;;0.10;0.10;;;;;;;;;;5012680;28;20106;-86
2024/03/29 10:26:22;;;;;;;0.10;0.10;;;;;;;;;;4996345;28;20083;-87
2024/03/29 10:28:49;;;;;;;0.10;0.10;;;;;;;;;;4996383;28;20100;-88
2024/03/29 10:31:15;;;;;;;0.10;0.10;;;;;;;;;;5012647;28;20042;-87
2024/03/29 10:33:43;;;;;;;0.10;0.10;;;;;;;;;;4996066;28;20073;-86
2024/03/29 10:36:11;;;;;;;0.10;0.10;;;;;;;;;;5012382;28;20056;-87
2024/03/29 10:38:38;;;;;;;0.10;0.10;;;;;;;;;;4996005;28;20046;-85
2024/03/29 10:41:05;;;;;;;0.75;0.32;;;;;;;;;;4995944;28;20129;-84
2024/03/29 10:43:32;;;;;;;0.10;0.10;;;;;;;;;;5012255;28;20089;-85
2024/03/29 10:45:59;;;;;;;0.10;0.10;;;;;;;;;;4995838;28;20100;-84
2024/03/29 10:48:26;;;;;;;0.10;0.10;;;;;;;;;;4979984;28;20117;-84
2024/03/29 10:50:52;;;;;;;0.13;0.13;;;;;;;;;;5012164;28;20054;-84
2024/03/29 10:53:18;;;;;;;0.10;0.10;;;;;;;;;;4995796;28;20091;-85
2024/03/29 10:55:44;;;;;;;0.10;0.10;;;;;;;;;;5011932;28;20095;-85
2024/03/29 10:58:11;;;;;;;0.10;0.10;;;;;;;;;;4979834;28;20113;-85
2024/03/29 11:00:42;;;;;;;0.10;0.10;;;;;;;;;;4979748;28;20042;-85
2024/03/29 11:03:15;;;;;;;0.10;0.10;;;;;;;;;;4995797;28;20139;-84
2024/03/29 11:05:42;;;;;;;0.32;0.32;;;;;;;;;;4995746;28;20096;-85
2024/03/29 11:08:09;;;;;;;0.10;0.10;;;;;;;;;;4979570;28;20061;-84
2024/03/29 11:10:47;;;;;;;0.10;0.10;;;;;;;;;;5011982;28;20058;-85
2024/03/29 11:13:14;;;;;;;0.10;0.10;;;;;;;;;;5011796;28;20041;-84
2024/03/29 11:15:41;;;;;;;0.20;0.20;;;;;;;;;;4995601;28;20100;-85
2024/03/29 11:18:07;;;;;;;0.10;0.10;;;;;;;;;;5022957;28;20068;-84
2024/03/29 11:20:42;;;;;;;0.10;0.10;;;;;;;;;;4998548;28;20140;-84
2024/03/29 11:23:10;;;;;;;0.20;0.20;;;;;;;;;;4999605;28;20111;-85
2024/03/29 11:26:02;;;;;;;0.10;0.10;;;;;;;;;;5015099;28;20097;-85
2024/03/29 11:28:29;;;;;;;0.20;0.20;;;;;;;;;;5010651;28;20046;-84
2024/03/29 11:30:56;;;;;;;0.10;0.10;;;;;;;;;;5027787;28;20096;-86
2024/03/29 11:33:26;;;;;;;0.10;0.10;;;;;;;;;;4978929;28;20040;-86
2024/03/29 11:35:52;;;;;;;0.10;0.10;;;;;;;;;;4995305;28;20046;-86
2024/03/29 11:38:18;;;;;;;0.10;0.10;;;;;;;;;;4995064;28;20776;-86
2024/03/29 11:40:54;;;;;;;0.17;0.17;;;;;;;;;;4995256;28;20449;-86
2024/03/29 11:43:20;;;;;;;0.20;0.20;;;;;;;;;;5011435;28;20112;-86
2024/03/29 11:45:47;;;;;;;0.10;0.10;;;;;;;;;;4994937;28;20485;-87
2024/03/29 11:48:13;;;;;;;0.13;0.13;;;;;;;;;;5027369;28;20058;-86
2024/03/29 11:50:39;;;;;;;0.10;0.10;;;;;;;;;;4994997;28;20097;-87
2024/03/29 11:53:06;;;;;;;0.20;0.20;;;;;;;;;;4994990;28;20577;-87
2024/03/29 11:55:34;;;;;;;0.10;0.10;;;;;;;;;;4994846;28;20037;-87
2024/03/29 11:58:00;;;;;;;0.63;0.47;;;;;;;;;;4995298;28;20088;-86
2024/03/29 12:00:29;;;;;;;0.10;0.10;;;;;;;;;;4994930;28;20473;-86
2024/03/29 12:02:57;;;;;;;0.20;0.20;;;;;;;;;;4979305;28;20038;-87
2024/03/29 12:05:23;;;;;;;0.10;0.10;;;;;;;;;;4978684;28;20125;-87
2024/03/29 12:07:49;;;;;;;0.20;0.20;;;;;;;;;;4994830;28;20619;-85
2024/03/29 12:10:15;;;;;;;0.10;0.10;;;;;;;;;;4994681;28;20542;-87
2024/03/29 12:12:42;;;;;;;0.20;0.20;;;;;;;;;;4994560;28;20081;-84
2024/03/29 12:15:08;;;;;;;0.10;0.10;;;;;;;;;;4978796;28;20042;-84
2024/03/29 12:17:34;;;;;;;0.25;0.25;;;;;;;;;;5013090;28;20063;-84
2024/03/29 12:20:10;;;;;;;0.20;0.20;;;;;;;;;;4997682;28;20041;-84
2024/03/29 12:22:36;;;;;;;0.20;0.20;;;;;;;;;;5030516;28;20045;-84
2024/03/29 12:25:02;;;;;;;0.10;0.10;;;;;;;;;;5012650;28;20211;-84
2024/03/29 12:27:28;;;;;;;0.10;0.10;;;;;;;;;;5012914;28;20046;-84
2024/03/29 12:29:55;;;;;;;0.20;0.20;;;;;;;;;;5029951;28;20041;-84
2024/03/29 12:32:21;;;;;;;0.10;0.10;;;;;;;;;;5029199;28;20113;-84
2024/03/29 12:34:47;;;;;;;0.20;0.20;;;;;;;;;;5031260;28;20041;-84
2024/03/29 12:37:13;;;;;;;0.20;0.20;;;;;;;;;;5033207;28;20350;-84
2024/03/29 12:39:42;;;;;;;0.10;0.10;;;;;;;;;;5017580;28;20466;-84
2024/03/29 12:42:08;;;;;;;0.10;0.10;;;;;;;;;;5033416;28;20049;-84
2024/03/29 12:44:34;;;;;;;0.10;0.10;;;;;;;;;;5016212;28;20390;-84
2024/03/29 12:47:01;;;;;;;0.10;0.10;;;;;;;;;;5000646;28;20045;-84
2024/03/29 12:49:27;;;;;;;0.10;0.10;;;;;;;;;;5034225;28;20053;-88
2024/03/29 12:51:56;;;;;;;0.10;0.10;;;;;;;;;;5001871;28;20140;-85
2024/03/29 12:54:23;;;;;;;0.10;0.10;;;;;;;;;;5017404;28;20037;-85
2024/03/29 12:56:49;;;;;;;0.20;0.20;;;;;;;;;;5017539;28;20049;-85
2024/03/29 12:59:15;;;;;;;0.10;0.10;;;;;;;;;;5001092;28;20045;-85
2024/03/29 13:01:45;;;;;;;0.10;0.10;;;;;;;;;;5035276;28;20045;-85
2024/03/29 13:04:12;;;;;;;0.20;0.20;;;;;;;;;;5017644;28;20484;-85
2024/03/29 13:06:38;;;;;;;0.10;0.10;;;;;;;;;;5017531;28;20076;-85
2024/03/29 13:09:04;;;;;;;0.10;0.10;;;;;;;;;;5017251;28;20092;-85
2024/03/29 13:11:30;;;;;;;0.20;0.20;;;;;;;;;;5001191;28;20079;-85
2024/03/29 13:13:56;;;;;;;0.10;0.10;;;;;;;;;;5017347;28;20082;-84
2024/03/29 13:16:22;;;;;;;0.10;0.10;;;;;;;;;;5017140;28;20281;-85
2024/03/29 13:18:48;;;;;;;0.10;0.10;;;;;;;;;;5017185;28;20099;-85
2024/03/29 13:21:14;;;;;;;0.10;0.10;;;;;;;;;;5000764;28;20064;-85
2024/03/29 13:23:40;;;;;;;0.20;0.20;;;;;;;;;;5017091;28;20401;-85
2024/03/29 13:26:06;;;;;;;0.10;0.10;;;;;;;;;;5033363;28;20041;-85
2024/03/29 13:28:32;;;;;;;0.10;0.10;;;;;;;;;;5016994;28;20546;-85
2024/03/29 13:30:58;;;;;;;0.20;0.20;;;;;;;;;;5034763;28;20069;-85
2024/03/29 13:33:24;;;;;;;0.10;0.10;;;;;;;;;;5033309;28;20042;-85
2024/03/29 13:35:53;;;;;;;0.10;0.10;;;;;;;;;;5016729;28;20139;-85
2024/03/29 13:38:22;;;;;;;0.20;0.20;;;;;;;;;;5016805;28;20503;-85
2024/03/29 13:40:49;;;;;;;0.10;0.10;;;;;;;;;;5000927;28;20041;-85
2024/03/29 13:43:15;;;;;;;0.10;0.10;;;;;;;;;;5017223;28;20124;-85
2024/03/29 13:45:41;;;;;;;0.10;0.10;;;;;;;;;;5016208;28;20046;-85
2024/03/29 13:48:08;;;;;;;0.10;0.10;;;;;;;;;;5032781;28;20056;-85
2024/03/29 13:50:34;;;;;;;0.10;0.10;;;;;;;;;;5016833;28;20424;-85
2024/03/29 13:53:00;;;;;;;0.20;0.20;;;;;;;;;;5033410;28;20091;-85
2024/03/29 13:55:26;;;;;;;0.10;0.10;;;;;;;;;;5016722;28;20045;-85
2024/03/29 13:57:55;;;;;;;0.10;0.10;;;;;;;;;;5034160;28;20048;-85
2024/03/29 14:00:21;;;;;;;0.10;0.10;;;;;;;;;;5034104;28;20095;-85
2024/03/29 14:02:47;;;;;;;0.10;0.10;;;;;;;;;;5016237;28;20046;-85
2024/03/29 14:05:13;;;;;;;0.10;0.10;;;;;;;;;;5000157;28;20048;-84
2024/03/29 14:07:39;;;;;;;0.10;0.10;;;;;;;;;;5032632;28;20098;-84
2024/03/29 14:10:06;;;;;;;0.10;0.10;;;;;;;;;;5032841;28;20125;-84
2024/03/29 14:12:33;;;;;;;0.10;0.10;;;;;;;;;;5032789;28;20041;-84
2024/03/29 14:15:00;;;;;;;0.10;0.10;;;;;;;;;;5032670;28;20056;-84
2024/03/29 14:17:28;;;;;;;0.10;0.10;;;;;;;;;;4999877;28;20079;-84
2024/03/29 14:19:54;;;;;;;0.10;0.10;;;;;;;;;;5000158;28;20440;-84
2024/03/29 14:22:20;;;;;;;0.10;0.10;;;;;;;;;;5016067;28;20203;-84
2024/03/29 14:24:46;;;;;;;0.20;0.20;;;;;;;;;;5032560;28;20470;-84
2024/03/29 14:27:12;;;;;;;0.20;0.20;;;;;;;;;;4999599;28;20073;-87
2024/03/29 14:29:38;;;;;;;0.10;0.10;;;;;;;;;;5032422;28;20046;-86
2024/03/29 14:32:05;;;;;;;0.10;0.10;;;;;;;;;;4999574;28;20073;-87
2024/03/29 14:34:38;;;;;;;0.10;0.10;;;;;;;;;;5016238;28;20037;-91
2024/03/29 14:37:04;;;;;;;0.10;0.10;;;;;;;;;;5016538;28;20045;-86
2024/03/29 14:39:33;;;;;;;0.10;0.10;;;;;;;;;;5001904;28;20068;-89
2024/03/29 14:42:02;;;;;;;0.10;0.10;;;;;;;;;;4999970;28;20052;-91
2024/03/29 14:44:30;;;;;;;0.10;0.10;;;;;;;;;;5000816;28;20469;-92
2024/03/29 14:46:56;;;;;;;0.10;0.10;;;;;;;;;;5000437;28;20665;-91
2024/03/29 14:49:23;;;;;;;0.10;0.10;;;;;;;;;;4999880;28;20111;-90
2024/03/29 14:51:52;;;;;;;0.10;0.10;;;;;;;;;;5016453;28;20564;-93